createdAt,value
2022-08-05T00:00:31.211Z,20.06
2022-08-05T00:03:40.934Z,20.00
2022-08-05T00:09:13.188Z,19.88
2022-08-05T00:11:56.136Z,19.86
2022-08-05T00:14:51.853Z,19.81
2022-08-05T00:17:25.897Z,19.72
2022-08-05T00:20:02.786Z,19.65
2022-08-05T00:26:24.230Z,19.57
2022-08-05T00:28:55.352Z,19.48
2022-08-05T00:31:41.393Z,19.39
2022-08-05T00:34:56.863Z,19.37
2022-08-05T00:37:25.820Z,19.33
2022-08-05T00:40:11.528Z,19.30
2022-08-05T00:42:39.541Z,19.25
2022-08-05T00:45:38.135Z,19.21
2022-08-05T00:48:50.983Z,19.15
2022-08-05T00:51:51.667Z,19.09
2022-08-05T00:54:41.598Z,19.04
2022-08-05T00:57:58.488Z,18.98
2022-08-05T01:00:58.646Z,18.87
2022-08-05T01:03:33.426Z,18.84
2022-08-05T01:06:03.819Z,18.85
2022-08-05T01:08:42.997Z,18.81
2022-08-05T01:11:44.794Z,18.78
2022-08-05T01:14:28.364Z,18.77
2022-08-05T01:17:53.666Z,18.73
2022-08-05T01:20:40.026Z,18.69
2022-08-05T01:23:22.781Z,18.70
2022-08-05T01:29:07.224Z,18.72
2022-08-05T01:32:31.896Z,18.74
2022-08-05T01:35:51.899Z,18.77
2022-08-05T01:38:37.462Z,18.80
2022-08-05T01:41:35.668Z,18.78
2022-08-05T01:44:37.306Z,18.77
2022-08-05T01:47:38.779Z,18.75
2022-08-05T01:54:14.405Z,18.73
2022-08-05T01:58:12.461Z,18.75
2022-08-05T02:05:04.080Z,18.65
2022-08-05T02:07:47.241Z,18.59
2022-08-05T02:11:23.771Z,18.52
2022-08-05T02:14:27.333Z,18.45
2022-08-05T02:16:55.181Z,18.40
2022-08-05T02:19:27.221Z,18.36
2022-08-05T02:22:04.830Z,18.34
2022-08-05T02:24:37.121Z,18.32
2022-08-05T02:30:54.133Z,18.12
2022-08-05T02:34:19.384Z,18.02
2022-08-05T02:37:09.355Z,17.98
2022-08-05T02:39:41.262Z,18.00
2022-08-05T02:42:09.124Z,18.00
2022-08-05T02:44:57.072Z,17.98
2022-08-05T02:48:06.769Z,17.99
2022-08-05T02:53:55.153Z,18.01
2022-08-05T02:56:51.699Z,18.04
2022-08-05T02:59:50.231Z,18.03
2022-08-05T03:02:27.431Z,18.05
2022-08-05T03:06:54.727Z,18.09
2022-08-05T03:08:45.330Z,18.17
2022-08-05T03:11:57.973Z,18.20
2022-08-05T03:15:24.276Z,18.18
2022-08-05T03:17:59.804Z,18.18
2022-08-05T03:20:50.431Z,18.18
2022-08-05T03:23:24.256Z,18.17
2022-08-05T03:26:32.041Z,18.17
2022-08-05T03:28:56.348Z,18.18
2022-08-05T03:31:55.382Z,18.19
2022-08-05T03:34:11.304Z,18.18
2022-08-05T03:36:37.921Z,18.16
2022-08-05T03:39:08.052Z,18.14
2022-08-05T03:41:45.494Z,18.14
2022-08-05T03:44:21.892Z,18.16
2022-08-05T03:46:54.194Z,18.20
2022-08-05T03:49:21.222Z,18.27
2022-08-05T03:52:37.937Z,18.49
2022-08-05T03:56:04.360Z,18.85
2022-08-05T03:58:19.967Z,18.91
2022-08-05T04:01:16.747Z,18.91
2022-08-05T04:04:09.835Z,18.93
2022-08-05T04:07:02.927Z,18.95
2022-08-05T04:09:57.972Z,18.98
2022-08-05T04:17:55.683Z,19.39
2022-08-05T04:20:23.161Z,20.33
2022-08-05T04:24:00.254Z,21.27
2022-08-05T04:30:33.631Z,22.84
2022-08-05T04:33:13.021Z,23.15
2022-08-05T04:36:45.674Z,23.39
2022-08-05T04:39:35.360Z,23.88
2022-08-05T04:42:25.544Z,24.23
2022-08-05T04:45:06.757Z,24.62
2022-08-05T04:48:10.224Z,25.10
2022-08-05T04:54:16.670Z,25.04
2022-08-05T04:56:50.655Z,24.91
2022-08-05T05:00:36.687Z,24.92
2022-08-05T05:02:52.810Z,25.03
2022-08-05T05:06:40.040Z,25.00
2022-08-05T05:09:20.744Z,25.24
2022-08-05T05:11:55.534Z,25.42
2022-08-05T05:14:31.872Z,25.75
2022-08-05T05:17:24.577Z,25.98
2022-08-05T05:20:04.684Z,26.10
2022-08-05T05:22:34.683Z,26.36
2022-08-05T05:25:58.612Z,26.70
2022-08-05T05:32:16.966Z,27.07
2022-08-05T05:34:53.175Z,27.16
2022-08-05T05:37:20.288Z,27.26
2022-08-05T05:40:23.346Z,27.45
2022-08-05T05:43:09.786Z,27.57
2022-08-05T05:45:39.350Z,27.61
2022-08-05T05:48:16.076Z,27.77
2022-08-05T05:51:23.657Z,28.03
2022-08-05T05:53:58.324Z,28.27
2022-08-05T05:56:32.307Z,28.47
2022-08-05T05:59:40.400Z,28.69
2022-08-05T06:02:32.655Z,28.97
2022-08-05T06:05:10.534Z,29.22
2022-08-05T06:07:57.562Z,29.40
2022-08-05T06:10:29.478Z,29.61
2022-08-05T06:13:40.753Z,29.71
2022-08-05T06:16:29.541Z,29.64
2022-08-05T06:19:06.003Z,29.38
2022-08-05T06:21:42.343Z,29.01
2022-08-05T06:24:17.884Z,28.57
2022-08-05T06:26:53.272Z,28.15
2022-08-05T06:29:45.503Z,27.71
2022-08-05T06:32:13.644Z,27.26
2022-08-05T06:34:56.518Z,26.68
2022-08-05T06:37:55.969Z,26.38
2022-08-05T06:40:20.827Z,26.27
2022-08-05T06:42:51.569Z,26.23
2022-08-05T06:45:45.108Z,26.20
2022-08-05T06:48:36.496Z,26.18
2022-08-05T06:50:55.748Z,26.17
2022-08-05T06:53:27.657Z,26.21
2022-08-05T06:55:55.127Z,26.26
2022-08-05T06:58:35.152Z,26.32
2022-08-05T07:01:06.465Z,26.34
2022-08-05T07:03:33.918Z,26.31
2022-08-05T07:06:01.834Z,26.29
2022-08-05T07:08:32.967Z,26.32
2022-08-05T07:10:59.732Z,26.39
2022-08-05T07:13:57.818Z,26.49
2022-08-05T07:18:00.161Z,26.65
2022-08-05T07:20:16.886Z,26.81
2022-08-05T07:22:21.862Z,26.93
2022-08-05T07:24:59.472Z,27.01
2022-08-05T07:27:27.622Z,27.08
2022-08-05T07:30:25.542Z,27.20
2022-08-05T07:32:57.482Z,27.33
2022-08-05T07:35:55.876Z,27.44
2022-08-05T07:38:32.882Z,27.48
2022-08-05T07:41:16.869Z,27.54
2022-08-05T07:43:49.179Z,27.61
2022-08-05T07:46:24.349Z,27.68
2022-08-05T07:49:01.909Z,27.78
2022-08-05T07:51:54.433Z,27.88
2022-08-05T07:54:30.371Z,27.96
2022-08-05T07:57:16.877Z,27.97
2022-08-05T07:59:48.919Z,28.03
2022-08-05T08:02:26.291Z,28.11
2022-08-05T08:04:54.408Z,28.18
2022-08-05T08:07:22.814Z,28.28
2022-08-05T08:09:52.282Z,28.45
2022-08-05T08:12:35.210Z,28.64
2022-08-05T08:15:13.898Z,28.83
2022-08-05T08:17:49.637Z,28.95
2022-08-05T08:21:01.078Z,28.98
2022-08-05T08:23:59.854Z,29.07
2022-08-05T08:26:00.520Z,29.20
2022-08-05T08:28:36.964Z,29.31
2022-08-05T08:31:21.042Z,29.41
2022-08-05T08:33:51.750Z,29.53
2022-08-05T08:36:38.385Z,29.68
2022-08-05T08:39:15.214Z,29.79
2022-08-05T08:41:52.086Z,29.83
2022-08-05T08:45:24.841Z,29.91
2022-08-05T08:47:22.334Z,30.05
2022-08-05T08:50:30.488Z,30.18
2022-08-05T08:52:57.935Z,30.28
2022-08-05T08:55:31.978Z,30.40
2022-08-05T08:58:14.520Z,30.51
2022-08-05T09:00:48.930Z,30.60
2022-08-05T09:03:20.900Z,30.70
2022-08-05T09:06:07.333Z,30.80
2022-08-05T09:08:35.649Z,30.87
2022-08-05T09:11:08.315Z,30.92
2022-08-05T09:14:09.381Z,31.01
2022-08-05T09:16:34.400Z,31.14
2022-08-05T09:19:01.058Z,31.20
2022-08-05T09:22:21.798Z,31.22
2022-08-05T09:24:24.414Z,31.27
2022-08-05T09:28:05.961Z,31.33
2022-08-05T09:30:25.056Z,31.40
2022-08-05T09:32:52.975Z,31.44
2022-08-05T09:35:26.632Z,31.41
2022-08-05T09:38:16.513Z,31.35
2022-08-05T09:40:52.420Z,31.34
2022-08-05T09:43:40.710Z,31.42
2022-08-05T09:46:27.722Z,31.49
2022-08-05T09:49:07.148Z,31.58
2022-08-05T09:51:41.535Z,31.73
2022-08-05T09:54:12.210Z,31.88
2022-08-05T09:56:51.867Z,31.98
2022-08-05T09:59:27.650Z,32.00
2022-08-05T10:02:30.282Z,31.97
2022-08-05T10:05:28.563Z,32.09
2022-08-05T10:13:48.170Z,32.01
2022-08-05T10:18:58.772Z,32.00
2022-08-05T10:21:41.899Z,32.03
2022-08-05T10:28:12.791Z,32.06
2022-08-05T10:28:13.459Z,32.08
2022-08-05T10:32:47.090Z,32.11
2022-08-05T10:34:10.740Z,32.14
2022-08-05T10:44:11.348Z,32.32
2022-08-05T10:47:06.066Z,32.48
2022-08-05T10:50:36.360Z,32.60
2022-08-05T10:53:58.194Z,32.67
2022-08-05T10:57:16.240Z,32.53
2022-08-05T11:00:34.898Z,32.54
2022-08-05T11:03:57.011Z,32.70
2022-08-05T11:06:30.739Z,32.85
2022-08-05T11:09:31.854Z,33.04
2022-08-05T11:12:27.303Z,33.16
2022-08-05T11:20:11.257Z,33.12
2022-08-05T11:26:04.615Z,33.15
2022-08-05T11:26:04.789Z,33.05
2022-08-05T11:28:52.741Z,33.28
2022-08-05T11:31:58.788Z,33.30
2022-08-05T11:34:47.472Z,33.27
2022-08-05T11:38:30.623Z,33.12
2022-08-05T11:46:30.870Z,32.88
2022-08-05T11:48:08.826Z,32.88
2022-08-05T11:49:12.081Z,32.92
2022-08-05T11:51:57.657Z,33.01
2022-08-05T11:55:14.796Z,32.84
2022-08-05T11:58:12.260Z,32.69
2022-08-05T12:01:08.462Z,32.76
2022-08-05T12:04:11.321Z,32.82
2022-08-05T12:08:03.361Z,32.89
2022-08-05T12:10:19.359Z,32.97
2022-08-05T12:13:48.843Z,33.04
2022-08-05T12:16:20.405Z,33.02
2022-08-05T12:20:26.159Z,32.95
2022-08-05T12:21:58.522Z,32.92
2022-08-05T12:24:52.502Z,33.01
2022-08-05T12:27:32.914Z,33.14
2022-08-05T12:30:15.514Z,33.29
2022-08-05T12:33:06.950Z,33.41
2022-08-05T12:36:16.317Z,33.54
2022-08-05T12:39:11.941Z,33.66
2022-08-05T12:41:45.950Z,33.64
2022-08-05T12:44:34.187Z,33.53
2022-08-05T12:47:12.432Z,33.42
2022-08-05T12:50:03.355Z,33.32
2022-08-05T12:52:42.904Z,33.21
2022-08-05T12:56:35.411Z,33.13
2022-08-05T12:59:46.769Z,33.04
2022-08-05T13:02:40.015Z,32.99
2022-08-05T13:09:12.513Z,33.26
2022-08-05T13:12:02.099Z,33.43
2022-08-05T13:14:36.151Z,33.54
2022-08-05T13:17:09.969Z,33.58
2022-08-05T13:23:50.561Z,33.55
2022-08-05T13:29:37.316Z,33.26
2022-08-05T13:32:12.117Z,33.22
2022-08-05T13:35:09.591Z,33.30
2022-08-05T13:37:36.133Z,33.27
2022-08-05T13:40:36.958Z,33.20
2022-08-05T13:42:59.686Z,33.27
2022-08-05T13:45:33.933Z,33.31
2022-08-05T13:48:57.113Z,33.21
2022-08-05T13:51:52.669Z,33.14
2022-08-05T13:54:41.666Z,33.21
2022-08-05T13:57:24.366Z,33.32
2022-08-05T14:00:02.268Z,33.41
2022-08-05T14:02:36.092Z,33.48
2022-08-05T14:05:15.386Z,33.53
2022-08-05T14:08:02.880Z,33.51
2022-08-05T14:11:20.672Z,33.51
2022-08-05T14:14:03.160Z,33.61
2022-08-05T14:16:34.261Z,33.58
2022-08-05T14:19:06.136Z,33.57
2022-08-05T14:22:09.439Z,33.59
2022-08-05T14:24:19.417Z,33.60
2022-08-05T14:27:17.317Z,33.66
2022-08-05T14:29:51.355Z,33.68
2022-08-05T14:32:27.808Z,33.70
2022-08-05T14:34:57.683Z,33.77
2022-08-05T14:37:42.206Z,33.80
2022-08-05T14:40:17.215Z,33.74
2022-08-05T14:42:47.828Z,33.71
2022-08-05T14:45:27.084Z,33.69
2022-08-05T14:48:05.836Z,33.67
2022-08-05T14:50:36.121Z,33.64
2022-08-05T14:53:20.955Z,33.59
2022-08-05T14:56:24.326Z,33.56
2022-08-05T14:59:24.923Z,33.49
2022-08-05T15:02:14.935Z,33.32
2022-08-05T15:04:52.461Z,33.22
2022-08-05T15:08:12.076Z,33.22
2022-08-05T15:10:11.819Z,33.27
2022-08-05T15:12:59.835Z,33.28
2022-08-05T15:15:55.283Z,33.29
2022-08-05T15:18:12.175Z,33.28
2022-08-05T15:20:41.366Z,33.26
2022-08-05T15:23:09.541Z,33.26
2022-08-05T15:25:53.005Z,33.25
2022-08-05T15:31:06.288Z,33.18
2022-08-05T15:34:04.449Z,33.13
2022-08-05T15:36:53.713Z,33.09
2022-08-05T15:41:04.037Z,33.08
2022-08-05T15:42:53.426Z,33.13
2022-08-05T15:45:04.430Z,33.21
2022-08-05T15:47:35.837Z,33.27
2022-08-05T15:50:15.126Z,33.34
2022-08-05T15:52:55.030Z,33.46
2022-08-05T15:56:03.972Z,33.57
2022-08-05T15:58:19.185Z,33.69
2022-08-05T16:00:57.101Z,33.76
2022-08-05T16:03:53.752Z,33.82
2022-08-05T16:06:27.475Z,33.88
2022-08-05T16:09:15.103Z,33.90
2022-08-05T16:11:52.768Z,33.92
2022-08-05T16:14:40.051Z,33.97
2022-08-05T16:17:23.838Z,34.00
2022-08-05T16:20:05.471Z,33.98
2022-08-05T16:22:47.341Z,33.91
2022-08-05T16:25:14.063Z,33.88
2022-08-05T16:28:05.528Z,33.89
2022-08-05T16:30:41.897Z,33.94
2022-08-05T16:33:18.136Z,33.95
2022-08-05T16:36:04.408Z,33.91
2022-08-05T16:38:39.905Z,33.93
2022-08-05T16:42:27.625Z,33.93
2022-08-05T16:44:18.223Z,33.92
2022-08-05T16:47:29.017Z,33.89
2022-08-05T16:50:29.770Z,33.84
2022-08-05T16:53:12.545Z,33.71
2022-08-05T17:00:04.393Z,33.45
2022-08-05T17:02:57.303Z,33.26
2022-08-05T17:06:16.402Z,33.08
2022-08-05T17:08:57.662Z,32.93
2022-08-05T17:11:26.021Z,32.78
2022-08-05T17:14:05.506Z,32.63
2022-08-05T17:16:36.786Z,32.50
2022-08-05T17:19:09.842Z,32.37
2022-08-05T17:21:56.570Z,32.24
2022-08-05T17:26:18.452Z,32.10
2022-08-05T17:28:05.052Z,31.96
2022-08-05T17:30:28.918Z,31.78
2022-08-05T17:32:55.780Z,31.63
2022-08-05T17:35:26.105Z,31.51
2022-08-05T17:38:00.676Z,31.39
2022-08-05T17:40:35.683Z,31.28
2022-08-05T17:43:07.862Z,31.17
2022-08-05T17:45:48.414Z,31.02
2022-08-05T17:49:19.678Z,30.89
2022-08-05T17:51:47.902Z,30.68
2022-08-05T17:54:37.632Z,30.50
2022-08-05T17:57:12.024Z,30.33
2022-08-05T17:59:59.806Z,30.13
2022-08-05T18:02:34.077Z,29.93
2022-08-05T18:05:09.105Z,29.72
2022-08-05T18:07:52.450Z,29.56
2022-08-05T18:10:21.607Z,29.38
2022-08-05T18:12:51.807Z,29.24
2022-08-05T18:15:19.206Z,29.10
2022-08-05T18:18:03.555Z,28.96
2022-08-05T18:20:32.722Z,28.81
2022-08-05T18:23:00.770Z,28.68
2022-08-05T18:25:39.244Z,28.54
2022-08-05T18:28:30.372Z,28.42
2022-08-05T18:30:59.328Z,28.27
2022-08-05T18:33:51.850Z,28.17
2022-08-05T18:36:21.252Z,28.05
2022-08-05T18:39:42.517Z,27.93
2022-08-05T18:42:06.098Z,27.81
2022-08-05T18:45:00.150Z,27.71
2022-08-05T18:47:28.558Z,27.61
2022-08-05T18:50:42.150Z,27.53
2022-08-05T18:53:19.103Z,27.43
2022-08-05T18:55:53.274Z,27.35
2022-08-05T18:58:31.825Z,27.29
2022-08-05T19:01:33.293Z,27.22
2022-08-05T19:04:24.154Z,27.16
2022-08-05T19:06:51.555Z,27.10
2022-08-05T19:09:22.533Z,27.05
2022-08-05T19:12:00.658Z,27.00
2022-08-05T19:14:53.419Z,26.94
2022-08-05T19:17:16.206Z,26.86
2022-08-05T19:19:46.503Z,26.78
2022-08-05T19:22:18.914Z,26.69
2022-08-05T19:24:56.034Z,26.58
2022-08-05T19:27:24.305Z,26.48
2022-08-05T19:30:00.979Z,26.40
2022-08-05T19:35:56.709Z,26.26
2022-08-05T19:38:26.648Z,26.18
2022-08-05T19:41:07.271Z,26.13
2022-08-05T19:44:05.676Z,26.08
2022-08-05T19:46:31.044Z,26.01
2022-08-05T19:49:16.371Z,25.93
2022-08-05T19:52:08.948Z,25.84
2022-08-05T19:55:08.846Z,25.76
2022-08-05T19:57:47.595Z,25.65
2022-08-05T20:00:14.360Z,25.54
2022-08-05T20:02:43.659Z,25.45
2022-08-05T20:05:16.504Z,25.38
2022-08-05T20:07:54.989Z,25.28
2022-08-05T20:10:25.165Z,25.18
2022-08-05T20:12:51.724Z,25.05
2022-08-05T20:15:48.027Z,24.96
2022-08-05T20:18:10.807Z,24.85
2022-08-05T20:20:55.867Z,24.76
2022-08-05T20:23:39.181Z,24.65
2022-08-05T20:26:15.971Z,24.54
2022-08-05T20:28:51.133Z,24.44
2022-08-05T20:31:21.848Z,24.35
2022-08-05T20:33:56.885Z,24.28
2022-08-05T20:36:27.130Z,24.21
2022-08-05T20:38:57.902Z,24.15
2022-08-05T20:41:43.529Z,24.11
2022-08-05T20:44:29.352Z,24.04
2022-08-05T20:47:03.310Z,23.98
2022-08-05T20:49:40.052Z,23.93
2022-08-05T20:52:07.950Z,23.89
2022-08-05T20:54:59.415Z,23.87
2022-08-05T20:57:43.500Z,23.84
2022-08-05T21:00:41.086Z,23.80
2022-08-05T21:03:04.539Z,23.76
2022-08-05T21:05:48.306Z,23.69
2022-08-05T21:08:42.273Z,23.62
2022-08-05T21:12:09.748Z,23.55
2022-08-05T21:14:11.826Z,23.47
2022-08-05T21:16:48.262Z,23.40
2022-08-05T21:19:16.656Z,23.33
2022-08-05T21:21:58.724Z,23.27
2022-08-05T21:24:25.216Z,23.21
2022-08-05T21:26:59.220Z,23.15
2022-08-05T21:29:31.857Z,23.10
2022-08-05T21:32:00.138Z,23.03
2022-08-05T21:34:28.320Z,22.94
2022-08-05T21:36:58.054Z,22.89
2022-08-05T21:39:31.463Z,22.84
2022-08-05T21:42:02.434Z,22.79
2022-08-05T21:44:32.114Z,22.76
2022-08-05T21:47:01.409Z,22.74
2022-08-05T21:49:48.411Z,22.71
2022-08-05T21:52:27.214Z,22.71
2022-08-05T21:55:26.621Z,22.69
2022-08-05T21:58:05.680Z,22.68
2022-08-05T22:00:32.390Z,22.66
2022-08-05T22:03:02.146Z,22.61
2022-08-05T22:05:28.890Z,22.58
2022-08-05T22:08:24.008Z,22.55
2022-08-05T22:10:53.948Z,22.54
2022-08-05T22:14:18.109Z,22.52
2022-08-05T22:16:41.111Z,22.53
2022-08-05T22:20:00.768Z,22.52
2022-08-05T22:22:15.423Z,22.50
2022-08-05T22:25:08.795Z,22.49
2022-08-05T22:28:09.515Z,22.52
2022-08-05T22:30:44.313Z,22.54
2022-08-05T22:33:58.465Z,22.56
2022-08-05T22:36:14.715Z,22.56
2022-08-05T22:38:42.815Z,22.54
2022-08-05T22:41:12.396Z,22.52
2022-08-05T22:43:41.788Z,22.53
2022-08-05T22:46:13.098Z,22.53
2022-08-05T22:48:47.656Z,22.54
2022-08-05T22:51:23.301Z,22.53
2022-08-05T22:54:06.499Z,22.51
2022-08-05T22:56:33.990Z,22.48
2022-08-05T22:59:04.174Z,22.46
2022-08-05T23:02:04.782Z,22.43
2022-08-05T23:04:37.858Z,22.39
2022-08-05T23:07:06.928Z,22.35
2022-08-05T23:09:57.783Z,22.32
2022-08-05T23:12:29.157Z,22.29
2022-08-05T23:15:03.107Z,22.28
2022-08-05T23:17:34.202Z,22.27
2022-08-05T23:20:10.414Z,22.25
2022-08-05T23:22:47.832Z,22.21
2022-08-05T23:25:50.178Z,22.18
2022-08-05T23:28:17.142Z,22.14
2022-08-05T23:30:53.054Z,22.11
2022-08-05T23:34:02.922Z,22.05
2022-08-05T23:36:13.558Z,21.99
2022-08-05T23:38:50.563Z,21.99
2022-08-05T23:41:26.765Z,21.96
2022-08-05T23:44:05.045Z,21.91
2022-08-05T23:46:33.662Z,21.90
2022-08-05T23:49:15.653Z,21.85
2022-08-05T23:52:05.759Z,21.79
2022-08-05T23:54:36.402Z,21.75
2022-08-05T23:57:06.032Z,21.71
2022-08-05T23:59:37.770Z,21.68
